Time;durP1;ratioP1;P1;durP2;ratioP2;P2;SDS_P1;SDS_P2;PMS_P1;PMS_P2;Temp;Humidity;BMP_temperature;BMP_pressure;BME280_temperature;BME280_humidity;BME280_pressure;Samples;Min_cycle;Max_cycle;Signal;HPM_P1;HPM_P2
2024/04/05 00:00:40;;;;;;;3.30;2.57;;;11.40;99.90;;;;;;4987122;28;20634;-72
2024/04/05 00:03:07;;;;;;;5.00;2.47;;;11.40;99.90;;;;;;4973194;28;20623;-72
2024/04/05 00:05:33;;;;;;;2.93;2.00;;;11.50;99.90;;;;;;4984774;28;20666;-72
2024/04/05 00:08:00;;;;;;;3.60;2.30;;;11.50;99.90;;;;;;4981408;28;20623;-72
2024/04/05 00:10:26;;;;;;;3.07;1.90;;;11.50;99.90;;;;;;4982087;28;20603;-72
2024/04/05 00:12:54;;;;;;;2.33;2.03;;;11.50;99.90;;;;;;4983658;28;20637;-72
2024/04/05 00:15:20;;;;;;;2.40;1.80;;;11.60;99.90;;;;;;4972972;28;20217;-72
2024/04/05 00:17:47;;;;;;;2.63;1.80;;;11.60;99.90;;;;;;4971448;28;20613;-72
2024/04/05 00:20:13;;;;;;;5.57;2.47;;;11.60;99.90;;;;;;4974536;28;20662;-72
2024/04/05 00:22:40;;;;;;;2.50;1.70;;;11.60;99.90;;;;;;4976252;28;20727;-72
2024/04/05 00:25:06;;;;;;;2.30;1.80;;;11.60;99.90;;;;;;4981454;28;20638;-72
2024/04/05 00:27:33;;;;;;;2.13;1.80;;;11.60;99.90;;;;;;4968340;28;20657;-72
2024/04/05 00:30:02;;;;;;;2.67;2.00;;;11.60;99.90;;;;;;4976918;28;20696;-72
2024/04/05 00:32:29;;;;;;;3.17;2.10;;;11.60;99.90;;;;;;4972091;28;20630;-72
2024/04/05 00:34:54;;;;;;;3.77;2.37;;;11.60;99.90;;;;;;4972562;28;20647;-72
2024/04/05 00:37:21;;;;;;;3.33;1.77;;;11.60;99.90;;;;;;4970317;28;20754;-72
2024/04/05 00:39:47;;;;;;;2.93;1.67;;;11.60;99.90;;;;;;4986185;28;20230;-72
2024/04/05 00:42:14;;;;;;;1.70;1.60;;;11.60;99.90;;;;;;4970785;28;20692;-72
2024/04/05 00:44:40;;;;;;;2.10;2.00;;;11.60;99.90;;;;;;4969673;28;20619;-72
2024/04/05 00:47:08;;;;;;;3.10;2.03;;;11.60;99.90;;;;;;4969075;28;20669;-72
2024/04/05 00:49:34;;;;;;;2.23;2.03;;;11.70;99.90;;;;;;4987653;28;20192;-72
2024/04/05 00:52:03;;;;;;;7.00;2.30;;;11.60;99.90;;;;;;4968406;28;20982;-72
2024/04/05 00:54:29;;;;;;;4.27;2.70;;;11.70;99.90;;;;;;4980023;28;21049;-72
2024/04/05 00:56:57;;;;;;;3.50;3.20;;;11.60;99.90;;;;;;4970805;28;20630;-72
2024/04/05 00:59:26;;;;;;;4.93;4.23;;;11.60;99.90;;;;;;4973721;28;20640;-72
2024/04/05 01:01:52;;;;;;;2.70;2.50;;;11.70;99.90;;;;;;4969068;28;21164;-72
2024/04/05 01:04:20;;;;;;;2.40;2.20;;;11.60;99.90;;;;;;4977476;28;20616;-72
2024/04/05 01:06:47;;;;;;;4.47;2.23;;;11.60;99.90;;;;;;4972031;28;20672;-71
2024/04/05 01:09:13;;;;;;;1.67;1.53;;;11.70;99.90;;;;;;4974393;28;20623;-71
2024/04/05 01:11:40;;;;;;;3.13;2.17;;;11.60;99.90;;;;;;4980120;28;20635;-71
2024/04/05 01:14:08;;;;;;;2.47;2.27;;;11.60;99.90;;;;;;4972203;28;20640;-71
2024/04/05 01:16:39;;;;;;;3.80;2.00;;;11.60;99.90;;;;;;4973343;28;20639;-71
2024/04/05 01:19:06;;;;;;;2.40;2.10;;;11.60;99.90;;;;;;4970817;28;20635;-71
2024/04/05 01:21:35;;;;;;;2.90;2.60;;;11.60;99.90;;;;;;4975627;28;21296;-71
2024/04/05 01:24:04;;;;;;;2.43;2.23;;;11.60;99.90;;;;;;4971514;28;20699;-71
2024/04/05 01:26:33;;;;;;;3.70;2.40;;;11.60;99.90;;;;;;4974975;28;20709;-71
2024/04/05 01:29:00;;;;;;;1.93;1.83;;;11.60;99.90;;;;;;4971263;28;20681;-71
2024/04/05 01:31:28;;;;;;;2.53;2.20;;;11.60;99.90;;;;;;4975650;28;20659;-72
2024/04/05 01:33:55;;;;;;;2.20;2.00;;;11.60;99.90;;;;;;4974174;28;20654;-72
2024/04/05 01:36:24;;;;;;;2.33;2.13;;;11.60;99.90;;;;;;4970374;28;21058;-72
2024/04/05 01:38:53;;;;;;;4.33;2.60;;;11.60;99.90;;;;;;4985345;28;20622;-71
2024/04/05 01:41:23;;;;;;;2.43;2.10;;;11.60;99.90;;;;;;4970596;28;20996;-71
2024/04/05 01:43:52;;;;;;;4.90;2.10;;;11.60;99.90;;;;;;4968004;28;21075;-72
2024/04/05 01:46:25;;;;;;;2.23;2.03;;;11.50;99.90;;;;;;4971116;28;21236;-72
2024/04/05 01:48:52;;;;;;;3.93;1.90;;;11.60;99.90;;;;;;4984820;28;20642;-72
2024/04/05 01:51:19;;;;;;;3.10;2.10;;;11.50;99.90;;;;;;4977872;28;20639;-72
2024/04/05 01:53:44;;;;;;;1.97;1.70;;;11.50;99.90;;;;;;4980111;28;20195;-72
2024/04/05 01:56:11;;;;;;;3.00;2.80;;;11.50;99.90;;;;;;4980084;28;21101;-72
2024/04/05 01:58:38;;;;;;;3.00;2.10;;;11.50;99.90;;;;;;4990052;28;20581;-72
2024/04/05 02:01:05;;;;;;;2.80;1.87;;;11.40;99.90;;;;;;4984007;28;20637;-72
2024/04/05 02:03:31;;;;;;;3.37;3.07;;;11.40;99.90;;;;;;4981524;28;20624;-73
2024/04/05 02:05:58;;;;;;;2.93;2.20;;;11.40;99.90;;;;;;4977896;28;21243;-72
2024/04/05 02:08:24;;;;;;;4.03;2.80;;;11.40;99.90;;;;;;4978190;28;20218;-72
2024/04/05 02:10:50;;;;;;;4.53;2.37;;;11.40;99.90;;;;;;4995541;28;21190;-72
2024/04/05 02:13:17;;;;;;;2.10;1.93;;;11.40;99.90;;;;;;4979320;28;20198;-72
2024/04/05 02:15:47;;;;;;;3.23;2.30;;;11.40;99.90;;;;;;4981113;28;20693;-72
2024/04/05 02:18:13;;;;;;;3.07;2.57;;;11.40;99.90;;;;;;4978167;28;20634;-72
2024/04/05 02:20:43;;;;;;;4.03;2.27;;;11.40;99.90;;;;;;4981212;28;20663;-72
2024/04/05 02:23:09;;;;;;;3.10;2.33;;;11.50;99.90;;;;;;4982173;28;20676;-72
2024/04/05 02:25:36;;;;;;;5.73;2.17;;;11.40;99.90;;;;;;4984556;28;20638;-72
2024/04/05 02:28:03;;;;;;;2.43;2.23;;;11.40;99.90;;;;;;4976266;28;20678;-72
2024/04/05 02:30:31;;;;;;;2.00;1.90;;;11.40;99.90;;;;;;4979157;28;20635;-72
2024/04/05 02:32:58;;;;;;;2.63;2.30;;;11.40;99.90;;;;;;4991845;28;20971;-72
2024/04/05 02:35:27;;;;;;;2.67;2.13;;;11.30;99.90;;;;;;4977125;28;20751;-72
2024/04/05 02:37:53;;;;;;;3.23;2.00;;;11.30;99.90;;;;;;4989965;28;21050;-72
2024/04/05 02:40:19;;;;;;;2.20;2.00;;;11.30;99.90;;;;;;4978896;28;20641;-72
2024/04/05 02:42:45;;;;;;;2.40;2.20;;;11.40;99.90;;;;;;4983094;28;20205;-72
2024/04/05 02:45:13;;;;;;;4.10;2.47;;;11.30;99.90;;;;;;4981145;28;20633;-73
2024/04/05 02:47:39;;;;;;;2.70;2.30;;;11.20;99.90;;;;;;4979607;28;20730;-72
2024/04/05 02:50:08;;;;;;;3.43;2.50;;;11.30;99.90;;;;;;4982342;28;20638;-72
2024/04/05 02:52:35;;;;;;;2.90;2.30;;;11.20;99.90;;;;;;4977231;28;20622;-72
2024/04/05 02:55:05;;;;;;;4.60;2.40;;;11.20;99.90;;;;;;4976962;28;20654;-72
2024/04/05 02:57:32;;;;;;;2.13;1.93;;;11.20;99.90;;;;;;4976556;28;20674;-72
2024/04/05 02:59:59;;;;;;;2.70;2.50;;;11.20;99.90;;;;;;4975283;28;20631;-72
2024/04/05 03:02:27;;;;;;;2.67;2.47;;;11.20;99.90;;;;;;4976142;28;20658;-72
2024/04/05 03:04:54;;;;;;;2.93;2.23;;;11.20;99.90;;;;;;4976688;28;21066;-72
2024/04/05 03:07:22;;;;;;;3.60;2.70;;;11.20;99.90;;;;;;4972259;28;20681;-72
2024/04/05 03:09:49;;;;;;;3.07;2.30;;;11.10;99.90;;;;;;4974777;28;20633;-72
2024/04/05 03:12:16;;;;;;;3.90;2.80;;;11.20;99.90;;;;;;4977330;28;21200;-73
2024/04/05 03:14:43;;;;;;;3.03;2.43;;;11.10;99.90;;;;;;5006296;28;21096;-73
2024/04/05 03:17:09;;;;;;;2.50;2.30;;;11.10;99.90;;;;;;4983123;28;20677;-72
2024/04/05 03:19:38;;;;;;;2.80;2.40;;;11.10;99.90;;;;;;4983091;28;20626;-72
2024/04/05 03:22:04;;;;;;;4.10;2.50;;;11.20;99.90;;;;;;4971861;28;20634;-73
2024/04/05 03:24:34;;;;;;;2.57;2.37;;;11.10;99.90;;;;;;4978434;28;20994;-73
2024/04/05 03:27:01;;;;;;;2.30;2.10;;;11.10;99.90;;;;;;4971730;28;20741;-72
2024/04/05 03:29:29;;;;;;;2.90;2.20;;;11.10;99.90;;;;;;4972467;28;21237;-72
2024/04/05 03:31:55;;;;;;;2.70;2.50;;;11.10;99.90;;;;;;4980217;28;20671;-72
2024/04/05 03:34:22;;;;;;;2.67;2.47;;;11.10;99.90;;;;;;4990156;28;21311;-72
2024/04/05 03:36:48;;;;;;;4.30;2.13;;;11.10;99.90;;;;;;4975944;28;20213;-72
2024/04/05 03:39:14;;;;;;;2.40;2.17;;;11.10;99.90;;;;;;4985815;28;20998;-72
2024/04/05 03:41:43;;;;;;;2.60;2.40;;;11.10;99.90;;;;;;4973970;28;20402;-73
2024/04/05 03:44:08;;;;;;;4.10;2.30;;;11.10;99.90;;;;;;4986330;28;20634;-72
2024/04/05 03:46:38;;;;;;;3.23;2.60;;;11.00;99.90;;;;;;4972027;28;21082;-73
2024/04/05 03:49:04;;;;;;;2.83;2.63;;;11.10;99.90;;;;;;4979704;28;20203;-72
2024/04/05 03:51:30;;;;;;;3.20;2.70;;;11.10;99.90;;;;;;4971095;28;20634;-72
2024/04/05 03:53:56;;;;;;;4.80;2.40;;;11.10;99.90;;;;;;4968908;28;20619;-72
2024/04/05 03:56:23;;;;;;;2.80;2.60;;;11.10;99.90;;;;;;4984290;28;20715;-72
2024/04/05 03:58:51;;;;;;;7.67;2.60;;;11.10;99.90;;;;;;4972280;28;20634;-71
2024/04/05 04:01:18;;;;;;;2.60;2.40;;;11.10;99.90;;;;;;4990355;28;20631;-71
2024/04/05 04:03:44;;;;;;;8.10;2.47;;;11.10;99.90;;;;;;4970456;28;20630;-72
2024/04/05 04:06:11;;;;;;;2.47;2.27;;;11.10;99.90;;;;;;4973465;28;20756;-72
2024/04/05 04:08:37;;;;;;;4.43;2.83;;;11.10;99.90;;;;;;4976540;28;20660;-72
2024/04/05 04:11:05;;;;;;;3.27;3.00;;;11.20;99.90;;;;;;4980575;28;20633;-72
2024/04/05 04:13:31;;;;;;;4.30;3.23;;;11.20;99.90;;;;;;4982478;28;20618;-72
2024/04/05 04:16:00;;;;;;;3.90;2.70;;;11.10;99.90;;;;;;4977040;28;20626;-72
2024/04/05 04:18:26;;;;;;;3.53;2.80;;;11.10;99.90;;;;;;4969243;28;20209;-72
2024/04/05 04:20:54;;;;;;;2.67;2.47;;;11.10;99.90;;;;;;4971369;28;21191;-72
2024/04/05 04:23:19;;;;;;;2.70;2.47;;;11.10;99.90;;;;;;4971648;28;20491;-72
2024/04/05 04:25:46;;;;;;;3.60;3.17;;;11.10;99.90;;;;;;4977230;28;20626;-72
2024/04/05 04:28:12;;;;;;;3.50;2.33;;;11.00;99.90;;;;;;4965448;28;20194;-72
2024/04/05 04:30:39;;;;;;;2.40;2.20;;;11.00;99.90;;;;;;4978803;28;21279;-72
2024/04/05 04:33:06;;;;;;;2.57;2.37;;;11.00;99.90;;;;;;4975728;28;20211;-72
2024/04/05 04:35:33;;;;;;;5.70;2.50;;;10.90;99.90;;;;;;5018753;28;20623;-72
2024/04/05 04:37:59;;;;;;;6.60;3.40;;;11.00;99.90;;;;;;5054433;28;20637;-72
2024/04/05 04:40:26;;;;;;;3.93;2.83;;;10.90;99.90;;;;;;5026912;28;20956;-72
2024/04/05 04:42:52;;;;;;;4.93;2.90;;;10.90;99.90;;;;;;5001403;28;20652;-72
2024/04/05 04:45:19;;;;;;;2.97;2.77;;;10.90;99.90;;;;;;5038326;28;20625;-71
2024/04/05 04:47:44;;;;;;;3.73;2.80;;;10.90;99.90;;;;;;5030158;28;20241;-72
2024/04/05 04:50:13;;;;;;;3.77;2.83;;;10.80;99.90;;;;;;5052347;28;20621;-72
2024/04/05 04:52:39;;;;;;;3.57;2.50;;;10.80;99.90;;;;;;5051895;28;20205;-71
2024/04/05 04:55:09;;;;;;;7.53;3.33;;;10.80;99.90;;;;;;4994563;28;20622;-71
2024/04/05 04:57:34;;;;;;;4.70;4.30;;;10.80;99.90;;;;;;4988993;28;20676;-72
2024/04/05 05:00:01;;;;;;;3.70;3.40;;;10.70;99.90;;;;;;5002289;28;20629;-72
2024/04/05 05:02:28;;;;;;;6.57;3.70;;;10.70;99.90;;;;;;5038909;28;20285;-72
2024/04/05 05:04:54;;;;;;;4.67;4.27;;;10.60;99.90;;;;;;5016150;28;21114;-72
2024/04/05 05:07:22;;;;;;;4.93;4.30;;;10.60;99.90;;;;;;5051489;28;21050;-78
2024/04/05 05:09:48;;;;;;;6.93;4.03;;;10.60;99.90;;;;;;5026613;28;20670;-79
2024/04/05 05:12:15;;;;;;;6.00;4.03;;;10.60;99.90;;;;;;5044241;28;20720;-77
2024/04/05 05:14:41;;;;;;;4.63;3.47;;;10.60;99.90;;;;;;5023699;28;21243;-76
2024/04/05 05:17:08;;;;;;;4.10;3.70;;;10.60;99.90;;;;;;4997141;28;21116;-75
2024/04/05 05:19:34;;;;;;;4.43;4.03;;;10.60;99.90;;;;;;5053530;28;20594;-78
2024/04/05 05:22:00;;;;;;;8.40;4.10;;;10.50;99.90;;;;;;5005238;28;20736;-75
2024/04/05 05:24:28;;;;;;;5.73;4.10;;;10.50;99.90;;;;;;5013629;28;20230;-76
2024/04/05 05:26:54;;;;;;;7.80;4.40;;;10.50;99.90;;;;;;5030598;28;20669;-78
2024/04/05 05:29:20;;;;;;;10.13;4.80;;;10.40;99.90;;;;;;5019818;28;20665;-76
2024/04/05 05:31:47;;;;;;;4.47;3.63;;;10.30;99.90;;;;;;4989171;28;20784;-75
2024/04/05 05:34:13;;;;;;;3.97;3.67;;;10.40;99.90;;;;;;5014841;28;20725;-73
2024/04/05 05:36:39;;;;;;;4.80;3.70;;;10.40;99.90;;;;;;4997319;28;21237;-74
2024/04/05 05:39:06;;;;;;;4.13;3.70;;;10.50;99.90;;;;;;5050686;28;20564;-73
2024/04/05 05:41:34;;;;;;;6.03;4.50;;;10.50;99.90;;;;;;5039632;28;21066;-74
2024/04/05 05:44:00;;;;;;;4.93;4.40;;;10.60;99.90;;;;;;5021769;28;20721;-75
2024/04/05 05:46:27;;;;;;;4.50;4.10;;;10.60;99.90;;;;;;5031241;28;21112;-76
2024/04/05 05:48:53;;;;;;;4.90;4.30;;;10.60;99.90;;;;;;5024978;28;20202;-75
2024/04/05 05:51:20;;;;;;;4.13;3.70;;;10.70;99.90;;;;;;5022930;28;20629;-76
2024/04/05 05:53:46;;;;;;;6.17;4.80;;;10.70;99.90;;;;;;5025326;28;20637;-74
2024/04/05 05:56:12;;;;;;;4.97;4.57;;;10.80;99.90;;;;;;5050839;28;20610;-73
2024/04/05 05:59:55;;;;;;;5.73;5.23;;;10.90;99.90;;;;;;5047446;28;20203;-76
2024/04/05 06:05:03;;;;;;;4.83;4.17;;;11.00;99.90;;;;;;4973623;28;20629;-72
2024/04/05 06:07:32;;;;;;;4.27;3.97;;;11.10;99.90;;;;;;4974634;28;20696;-71
2024/04/05 06:09:59;;;;;;;4.90;3.90;;;11.20;99.90;;;;;;4981307;28;20631;-72
2024/04/05 06:12:25;;;;;;;8.03;4.63;;;11.40;99.90;;;;;;4973202;28;20630;-72
2024/04/05 06:14:55;;;;;;;5.27;4.77;;;11.40;99.90;;;;;;4980927;28;20678;-72
2024/04/05 06:17:21;;;;;;;5.47;4.13;;;11.50;99.90;;;;;;4983631;28;20645;-72
2024/04/05 06:19:53;;;;;;;5.90;5.30;;;11.60;99.90;;;;;;4971219;28;20632;-72
2024/04/05 06:22:19;;;;;;;4.80;4.00;;;11.60;99.90;;;;;;4967803;28;20205;-72
2024/04/05 06:24:49;;;;;;;4.10;3.37;;;11.70;99.90;;;;;;4977591;28;20611;-72
2024/04/05 06:27:15;;;;;;;4.43;3.67;;;11.70;99.90;;;;;;5032029;28;20665;-72
2024/04/05 06:29:42;;;;;;;6.43;3.90;;;11.80;99.90;;;;;;5016048;28;21254;-72
2024/04/05 06:32:09;;;;;;;4.03;3.20;;;11.80;99.90;;;;;;4974517;28;21067;-71
2024/04/05 06:34:40;;;;;;;6.20;3.70;;;11.90;99.90;;;;;;5021442;28;20725;-72
2024/04/05 06:37:06;;;;;;;3.93;3.37;;;12.00;99.90;;;;;;5000836;28;20638;-71
2024/04/05 06:39:33;;;;;;;3.90;3.60;;;12.10;99.90;;;;;;5033618;28;20628;-72
2024/04/05 06:41:59;;;;;;;2.90;2.70;;;12.30;99.90;;;;;;5003685;28;20619;-72
2024/04/05 06:44:26;;;;;;;4.27;3.07;;;12.50;99.90;;;;;;5033357;28;20630;-72
2024/04/05 06:46:52;;;;;;;4.33;3.33;;;12.70;99.90;;;;;;5036602;28;20224;-72
2024/04/05 06:49:20;;;;;;;4.07;2.80;;;12.90;99.90;;;;;;5029786;28;20600;-72
2024/04/05 06:51:46;;;;;;;4.10;2.93;;;13.00;99.90;;;;;;5019083;28;20639;-72
2024/04/05 06:54:13;;;;;;;4.50;2.20;;;13.30;99.90;;;;;;5018997;28;21355;-72
2024/04/05 06:56:39;;;;;;;6.83;2.87;;;13.40;99.90;;;;;;5030188;28;20283;-72
2024/04/05 06:59:06;;;;;;;2.73;2.40;;;13.40;99.90;;;;;;5047455;28;21233;-72
2024/04/05 07:01:32;;;;;;;2.60;2.07;;;13.50;99.90;;;;;;5030494;28;20622;-72
2024/04/05 07:03:59;;;;;;;2.10;1.77;;;13.60;99.90;;;;;;5023252;28;20682;-72
2024/04/05 07:06:26;;;;;;;4.43;2.03;;;13.60;99.90;;;;;;5057502;28;20626;-73
2024/04/05 07:08:53;;;;;;;5.00;2.83;;;13.70;99.90;;;;;;5064207;28;20628;-72
2024/04/05 07:11:19;;;;;;;3.33;2.87;;;13.70;99.90;;;;;;5045289;28;20617;-73
2024/04/05 07:13:46;;;;;;;5.30;2.83;;;13.80;99.90;;;;;;5019864;28;20739;-72
2024/04/05 07:16:13;;;;;;;3.23;2.23;;;13.90;99.90;;;;;;5061423;28;20674;-72
2024/04/05 07:18:39;;;;;;;5.10;2.47;;;13.90;99.90;;;;;;5031689;28;20640;-72
2024/04/05 07:21:05;;;;;;;5.90;2.23;;;14.10;99.90;;;;;;5012804;28;20746;-72
2024/04/05 07:23:34;;;;;;;2.00;1.90;;;14.10;99.90;;;;;;5019896;28;20965;-73
2024/04/05 07:26:00;;;;;;;2.63;2.23;;;14.10;99.90;;;;;;4990333;28;20195;-72
2024/04/05 07:28:27;;;;;;;1.83;1.63;;;14.10;99.90;;;;;;5027361;28;20665;-73
2024/04/05 07:30:53;;;;;;;1.90;1.80;;;14.20;99.90;;;;;;5033859;28;20203;-72
2024/04/05 07:33:19;;;;;;;2.50;2.23;;;14.20;99.90;;;;;;5043348;28;20625;-73
2024/04/05 07:35:45;;;;;;;3.90;1.90;;;14.40;99.90;;;;;;5045234;28;20636;-75
2024/04/05 07:38:12;;;;;;;2.00;1.77;;;14.40;99.90;;;;;;5021060;28;20648;-74
2024/04/05 07:40:39;;;;;;;3.93;1.60;;;14.50;99.90;;;;;;5002900;28;20195;-74
2024/04/05 07:43:06;;;;;;;2.60;1.60;;;14.60;99.90;;;;;;4989880;28;20641;-75
2024/04/05 07:45:32;;;;;;;2.80;1.90;;;14.60;99.90;;;;;;5034973;28;20680;-75
2024/04/05 07:47:58;;;;;;;3.20;1.90;;;14.70;99.90;;;;;;5059646;28;21037;-75
2024/04/05 07:50:24;;;;;;;3.10;1.77;;;14.80;99.90;;;;;;5058896;28;20954;-75
2024/04/05 07:52:53;;;;;;;3.30;1.70;;;14.80;99.90;;;;;;5020947;28;20713;-75
2024/04/05 07:55:19;;;;;;;3.20;2.33;;;14.90;99.90;;;;;;5036025;28;20947;-75
2024/04/05 07:57:47;;;;;;;6.50;2.97;;;15.00;99.90;;;;;;5023244;28;21200;-75
2024/04/05 08:00:14;;;;;;;4.70;2.37;;;15.00;99.90;;;;;;5040973;28;20725;-75
2024/04/05 08:02:45;;;;;;;2.77;1.97;;;15.20;99.90;;;;;;5039608;28;20630;-73
2024/04/05 08:05:11;;;;;;;2.77;1.87;;;15.30;99.90;;;;;;5006902;28;20860;-74
2024/04/05 08:07:38;;;;;;;1.60;1.20;;;15.30;99.90;;;;;;5034165;28;21334;-73
2024/04/05 08:10:04;;;;;;;2.33;1.90;;;15.60;99.90;;;;;;5027597;28;20201;-73
2024/04/05 08:12:31;;;;;;;3.57;1.97;;;15.60;99.90;;;;;;5051711;28;20966;-73
2024/04/05 08:14:58;;;;;;;1.53;1.43;;;15.60;99.40;;;;;;5043854;28;20991;-74
2024/04/05 08:17:25;;;;;;;1.97;1.77;;;15.70;99.90;;;;;;5006432;28;20621;-73
2024/04/05 08:19:51;;;;;;;2.23;1.53;;;15.80;99.90;;;;;;5030815;28;20989;-73
2024/04/05 08:22:18;;;;;;;1.57;1.33;;;15.90;99.90;;;;;;5050131;28;20629;-73
2024/04/05 08:24:44;;;;;;;3.37;1.80;;;16.00;99.90;;;;;;5015119;28;20209;-74
2024/04/05 08:27:10;;;;;;;1.00;1.00;;;16.10;99.00;;;;;;5059552;28;20646;-73
2024/04/05 08:29:37;;;;;;;2.10;1.60;;;16.10;98.00;;;;;;4981622;28;20194;-74
2024/04/05 08:32:06;;;;;;;4.53;2.00;;;16.20;98.70;;;;;;5038313;28;20661;-74
2024/04/05 08:34:32;;;;;;;3.60;2.00;;;16.30;98.40;;;;;;4995749;28;20624;-74
2024/04/05 08:37:00;;;;;;;3.20;1.47;;;16.30;98.40;;;;;;5031683;28;20634;-74
2024/04/05 08:39:26;;;;;;;1.83;1.70;;;16.50;98.10;;;;;;5047153;28;20711;-74
2024/04/05 08:42:05;;;;;;;3.57;2.30;;;16.60;97.30;;;;;;5047691;28;21189;-74
2024/04/05 08:44:33;;;;;;;6.40;2.30;;;16.80;97.50;;;;;;5017370;28;20717;-74
2024/04/05 08:47:00;;;;;;;2.53;1.37;;;17.00;96.90;;;;;;5007167;28;21238;-73
2024/04/05 08:49:32;;;;;;;1.63;1.53;;;16.90;96.40;;;;;;5015394;28;20759;-74
2024/04/05 08:52:00;;;;;;;2.10;1.37;;;17.00;96.40;;;;;;5032036;28;20729;-72
2024/04/05 08:54:27;;;;;;;3.10;1.83;;;17.10;96.60;;;;;;5022210;28;20698;-73
2024/04/05 08:56:56;;;;;;;2.77;1.87;;;17.20;96.90;;;;;;5021445;28;20632;-73
2024/04/05 08:59:23;;;;;;;2.93;2.40;;;17.30;97.10;;;;;;5002363;28;20618;-73
2024/04/05 09:01:53;;;;;;;1.87;1.50;;;17.40;97.20;;;;;;5050528;28;21177;-73
2024/04/05 09:04:19;;;;;;;4.37;2.40;;;17.40;96.00;;;;;;5028166;28;20737;-74
2024/04/05 09:06:47;;;;;;;2.10;1.87;;;17.50;96.00;;;;;;5052103;28;20740;-73
2024/04/05 09:09:24;;;;;;;1.57;1.47;;;17.60;96.20;;;;;;5029026;28;21252;-74
2024/04/05 09:11:51;;;;;;;2.00;1.87;;;17.70;96.80;;;;;;5033409;28;20710;-73
2024/04/05 09:14:17;;;;;;;3.80;2.00;;;17.90;95.90;;;;;;5020544;28;21183;-73
2024/04/05 09:16:44;;;;;;;3.40;1.60;;;17.90;96.60;;;;;;5003461;28;20641;-73
2024/04/05 09:19:11;;;;;;;1.80;1.37;;;18.00;95.00;;;;;;5026775;28;20205;-73
2024/04/05 09:21:43;;;;;;;2.60;1.60;;;18.10;95.50;;;;;;5036214;28;20632;-73
2024/04/05 09:24:11;;;;;;;1.90;1.33;;;18.10;94.40;;;;;;4998044;28;20967;-73
2024/04/05 09:26:37;;;;;;;2.33;1.17;;;18.30;94.70;;;;;;5035988;28;20629;-73
2024/04/05 09:29:06;;;;;;;1.10;1.00;;;18.50;94.10;;;;;;5019063;28;21233;-73
2024/04/05 09:31:33;;;;;;;3.60;1.50;;;18.60;94.00;;;;;;5010441;28;20638;-73
2024/04/05 09:34:06;;;;;;;2.20;1.30;;;18.70;93.20;;;;;;5039017;28;20675;-73
2024/04/05 09:36:34;;;;;;;1.33;1.20;;;18.90;93.70;;;;;;5018296;28;20606;-73
2024/04/05 09:39:02;;;;;;;1.43;1.30;;;18.90;93.30;;;;;;5025338;28;20632;-73
2024/04/05 09:41:33;;;;;;;2.20;1.30;;;19.00;93.10;;;;;;5013545;28;21252;-74
2024/04/05 09:44:02;;;;;;;2.97;1.53;;;19.10;92.60;;;;;;4992340;28;20677;-74
2024/04/05 09:46:29;;;;;;;1.70;1.10;;;19.10;93.40;;;;;;4994418;28;21052;-74
2024/04/05 09:48:55;;;;;;;2.50;1.20;;;19.30;91.40;;;;;;5011131;28;20657;-74
2024/04/05 09:51:26;;;;;;;4.33;1.50;;;19.40;91.60;;;;;;5033383;28;21189;-74
2024/04/05 09:53:52;;;;;;;3.40;1.80;;;19.50;91.30;;;;;;5041065;28;21213;-74
2024/04/05 09:56:20;;;;;;;1.60;1.27;;;19.60;90.50;;;;;;5039285;28;20632;-74
2024/04/05 09:58:49;;;;;;;2.20;1.47;;;19.70;89.30;;;;;;5035166;28;20680;-74
2024/04/05 10:01:16;;;;;;;1.33;1.10;;;19.80;90.50;;;;;;5016726;28;20625;-73
2024/04/05 10:03:44;;;;;;;2.37;2.00;;;19.90;89.30;;;;;;5033251;28;20725;-72
2024/04/05 10:06:15;;;;;;;1.47;1.37;;;20.00;88.80;;;;;;5043880;28;21188;-73
2024/04/05 10:08:42;;;;;;;3.17;1.30;;;20.20;88.90;;;;;;4993817;28;21301;-73
2024/04/05 10:11:12;;;;;;;1.47;1.37;;;20.20;88.10;;;;;;5004100;28;20618;-73
2024/04/05 10:13:38;;;;;;;2.07;1.00;;;20.30;86.80;;;;;;5026240;28;20642;-73
2024/04/05 10:16:08;;;;;;;1.23;1.13;;;20.40;83.90;;;;;;5039748;28;20629;-72
2024/04/05 10:18:37;;;;;;;2.30;1.37;;;20.50;83.00;;;;;;5014605;28;21066;-73
2024/04/05 10:21:07;;;;;;;1.67;1.40;;;20.70;81.80;;;;;;5022960;28;20634;-73
2024/04/05 10:23:34;;;;;;;1.60;1.10;;;20.60;82.70;;;;;;5000322;28;20642;-73
2024/04/05 10:26:01;;;;;;;0.83;0.83;;;20.70;81.70;;;;;;5004620;28;20629;-73
2024/04/05 10:28:28;;;;;;;7.43;1.27;;;20.70;83.10;;;;;;5034124;28;20719;-73
2024/04/05 10:30:56;;;;;;;4.63;0.90;;;20.80;80.00;;;;;;5056449;28;20625;-73
2024/04/05 10:33:24;;;;;;;1.33;1.17;;;21.10;79.50;;;;;;5006949;28;20628;-73
2024/04/05 10:35:51;;;;;;;3.07;0.90;;;21.30;80.00;;;;;;4995521;28;21246;-72
2024/04/05 10:38:17;;;;;;;1.00;1.00;;;21.40;78.50;;;;;;5008527;28;20650;-72
2024/04/05 10:40:44;;;;;;;1.03;0.90;;;21.70;75.60;;;;;;5022774;28;21184;-73
2024/04/05 10:43:11;;;;;;;0.80;0.80;;;21.80;73.20;;;;;;5053031;28;20632;-73
2024/04/05 10:45:38;;;;;;;1.87;1.13;;;21.80;73.10;;;;;;5007827;28;20732;-73
2024/04/05 10:48:05;;;;;;;3.40;1.20;;;21.80;74.50;;;;;;5059127;28;20669;-73
2024/04/05 10:50:38;;;;;;;0.93;0.93;;;21.90;74.00;;;;;;5001950;28;21010;-72
2024/04/05 10:53:05;;;;;;;1.90;1.10;;;21.80;72.20;;;;;;4996696;28;20628;-73
2024/04/05 10:55:32;;;;;;;0.90;0.80;;;21.80;74.30;;;;;;5044577;28;20637;-73
2024/04/05 10:58:01;;;;;;;5.07;1.13;;;21.90;71.40;;;;;;5018825;28;20732;-73
2024/04/05 11:00:30;;;;;;;2.83;1.17;;;21.70;76.40;;;;;;5009380;28;20617;-74
2024/04/05 11:02:57;;;;;;;0.97;0.80;;;21.80;70.20;;;;;;4999941;28;20630;-74
2024/04/05 11:05:23;;;;;;;0.73;0.73;;;21.80;71.10;;;;;;5010665;28;21162;-74
2024/04/05 11:07:59;;;;;;;0.73;0.73;;;21.60;70.50;;;;;;5025028;28;21225;-74
2024/04/05 11:10:30;;;;;;;1.27;1.17;;;21.90;70.60;;;;;;4998883;28;20629;-75
2024/04/05 11:12:56;;;;;;;1.83;0.90;;;22.00;72.00;;;;;;4997504;28;20636;-74
2024/04/05 11:15:23;;;;;;;0.90;0.80;;;22.00;69.80;;;;;;5044250;28;20720;-73
2024/04/05 11:17:59;;;;;;;1.23;1.00;;;22.10;67.50;;;;;;5002266;28;20745;-73
2024/04/05 11:20:29;;;;;;;5.17;1.07;;;22.10;70.30;;;;;;5008039;28;20619;-73
2024/04/05 11:23:02;;;;;;;2.10;0.80;;;22.20;66.70;;;;;;5020590;28;20694;-73
2024/04/05 11:25:30;;;;;;;2.83;1.47;;;22.20;70.20;;;;;;4986359;28;20627;-72
2024/04/05 11:27:56;;;;;;;1.73;1.10;;;22.20;70.10;;;;;;4973736;28;20664;-73
2024/04/05 11:30:24;;;;;;;1.20;1.00;;;22.20;67.00;;;;;;4970761;28;20626;-72
2024/04/05 11:32:50;;;;;;;1.10;1.00;;;22.10;67.10;;;;;;4975076;28;20693;-73
2024/04/05 11:35:17;;;;;;;2.73;0.93;;;22.30;71.30;;;;;;4983776;28;20621;-74
2024/04/05 11:37:43;;;;;;;1.07;0.97;;;22.40;70.00;;;;;;4981178;28;21004;-74
2024/04/05 11:40:13;;;;;;;0.80;0.80;;;22.40;67.90;;;;;;4992302;28;20791;-73
2024/04/05 11:42:39;;;;;;;0.73;0.73;;;22.30;67.40;;;;;;4972774;28;20716;-73
2024/04/05 11:45:09;;;;;;;1.23;0.90;;;22.10;67.80;;;;;;4976508;28;20686;-73
2024/04/05 11:47:35;;;;;;;1.43;1.20;;;21.90;68.10;;;;;;4968431;28;20638;-73
2024/04/05 11:50:03;;;;;;;0.87;0.87;;;21.80;65.70;;;;;;4970946;28;20694;-73
2024/04/05 11:52:30;;;;;;;7.50;2.53;;;21.60;65.80;;;;;;4968368;28;20618;-72
2024/04/05 11:54:57;;;;;;;1.03;1.00;;;21.40;68.20;;;;;;4970557;28;20626;-73
2024/04/05 11:57:24;;;;;;;3.03;1.03;;;21.40;69.30;;;;;;5004387;28;20626;-74
2024/04/05 11:59:51;;;;;;;0.90;0.90;;;21.40;68.40;;;;;;4978103;28;21182;-73
2024/04/05 12:02:17;;;;;;;0.80;0.80;;;21.50;67.10;;;;;;4972957;28;20987;-74
2024/04/05 12:04:43;;;;;;;0.80;0.80;;;21.30;66.50;;;;;;5025555;28;20724;-73
2024/04/05 12:07:12;;;;;;;1.37;1.27;;;21.20;69.30;;;;;;5005501;28;20205;-73
2024/04/05 12:09:39;;;;;;;1.23;0.87;;;21.00;70.40;;;;;;5017960;28;20780;-72
2024/04/05 12:12:05;;;;;;;1.50;1.40;;;21.00;69.60;;;;;;5028377;28;20705;-73
2024/04/05 12:14:34;;;;;;;2.60;2.07;;;21.10;71.20;;;;;;5011275;28;20622;-73
2024/04/05 12:17:00;;;;;;;2.00;1.50;;;21.20;69.70;;;;;;5029922;28;21184;-72
2024/04/05 12:19:27;;;;;;;2.07;1.07;;;21.40;70.90;;;;;;5010347;28;20637;-72
2024/04/05 12:21:52;;;;;;;1.10;0.87;;;21.60;68.40;;;;;;4986485;28;20633;-71
2024/04/05 12:24:19;;;;;;;1.37;1.27;;;21.70;67.50;;;;;;4988615;28;21186;-72
2024/04/05 12:26:45;;;;;;;1.80;1.03;;;22.00;67.60;;;;;;4974073;28;20609;-72
2024/04/05 12:29:12;;;;;;;1.93;1.83;;;22.10;67.00;;;;;;5001400;28;21213;-72
2024/04/05 12:31:40;;;;;;;1.00;0.90;;;22.10;65.40;;;;;;4996423;28;20637;-73
2024/04/05 12:34:07;;;;;;;2.60;1.10;;;22.10;65.00;;;;;;4997996;28;20691;-72
2024/04/05 12:36:33;;;;;;;2.83;1.10;;;22.20;68.00;;;;;;4974150;28;20633;-71
2024/04/05 12:39:06;;;;;;;1.27;1.17;;;22.30;67.70;;;;;;4974940;28;20638;-71
2024/04/05 12:41:33;;;;;;;2.03;1.07;;;22.40;65.70;;;;;;5002517;28;20984;-72
2024/04/05 12:44:00;;;;;;;1.37;1.27;;;22.10;64.10;;;;;;4988798;28;20610;-72
2024/04/05 12:46:26;;;;;;;1.40;1.30;;;22.00;64.80;;;;;;5036947;28;21194;-72
2024/04/05 12:48:55;;;;;;;0.97;0.83;;;22.00;66.10;;;;;;5027081;28;20710;-72
2024/04/05 12:51:21;;;;;;;2.30;0.90;;;21.80;65.40;;;;;;4990653;28;20626;-72